createdAt,value
2023-04-18T00:00:36.297Z,4.29
2023-04-18T00:03:04.586Z,4.34
2023-04-18T00:05:31.412Z,4.26
2023-04-18T00:07:57.732Z,4.34
2023-04-18T00:10:24.088Z,4.26
2023-04-18T00:12:50.412Z,4.20
2023-04-18T00:15:16.741Z,4.18
2023-04-18T00:17:43.136Z,4.16
2023-04-18T00:20:09.702Z,4.15
2023-04-18T00:22:36.772Z,4.12
2023-04-18T00:25:03.186Z,4.17
2023-04-18T00:27:29.497Z,4.19
2023-04-18T00:29:55.832Z,4.27
2023-04-18T00:32:22.155Z,4.26
2023-04-18T00:34:48.605Z,4.19
2023-04-18T00:37:14.931Z,4.19
2023-04-18T00:39:41.201Z,4.16
2023-04-18T00:42:07.486Z,4.20
2023-04-18T00:44:33.818Z,4.15
2023-04-18T00:47:00.162Z,4.20
2023-04-18T00:49:27.436Z,4.21
2023-04-18T00:51:55.745Z,4.21
2023-04-18T00:54:24.198Z,4.24
2023-04-18T00:56:51.191Z,4.19
2023-04-18T00:59:17.637Z,4.15
2023-04-18T01:01:44.033Z,4.13
2023-04-18T01:06:47.436Z,4.12
2023-04-18T01:09:14.080Z,4.07
2023-04-18T01:14:19.531Z,4.01
2023-04-18T01:16:46.629Z,4.03
2023-04-18T01:19:14.181Z,4.04
2023-04-18T01:21:40.497Z,4.01
2023-04-18T01:24:08.447Z,4.06
2023-04-18T01:26:34.776Z,4.00
2023-04-18T01:29:01.086Z,3.99
2023-04-18T01:31:27.422Z,4.00
2023-04-18T01:33:53.810Z,3.99
2023-04-18T01:36:20.140Z,4.04
2023-04-18T01:38:46.490Z,4.02
2023-04-18T01:41:12.827Z,4.01
2023-04-18T01:43:39.121Z,4.01
2023-04-18T01:46:05.460Z,4.05
2023-04-18T01:48:31.865Z,4.02
2023-04-18T01:50:58.371Z,4.01
2023-04-18T01:53:24.681Z,4.04
2023-04-18T01:55:51.015Z,4.02
2023-04-18T01:58:17.299Z,4.10
2023-04-18T02:00:45.492Z,4.10
2023-04-18T02:03:12.007Z,4.13
2023-04-18T02:05:38.948Z,4.15
2023-04-18T02:08:05.275Z,4.16
2023-04-18T02:10:31.600Z,4.22
2023-04-18T02:12:57.905Z,4.26
2023-04-18T02:15:24.505Z,4.28
2023-04-18T02:17:50.881Z,4.34
2023-04-18T02:20:17.398Z,4.38
2023-04-18T02:22:44.004Z,4.43
2023-04-18T02:25:10.348Z,4.40
2023-04-18T02:27:36.664Z,4.41
2023-04-18T02:30:03.462Z,4.45
2023-04-18T02:32:29.762Z,4.48
2023-04-18T02:34:56.071Z,4.44
2023-04-18T02:37:22.360Z,4.44
2023-04-18T02:39:48.671Z,4.45
2023-04-18T02:42:15.004Z,4.50
2023-04-18T02:44:41.332Z,4.49
2023-04-18T02:47:07.657Z,4.50
2023-04-18T02:49:36.321Z,4.53
2023-04-18T02:52:02.657Z,4.51
2023-04-18T02:54:28.947Z,4.54
2023-04-18T02:56:55.394Z,4.50
2023-04-18T02:59:21.953Z,4.50
2023-04-18T03:01:48.373Z,4.49
2023-04-18T03:04:14.961Z,4.49
2023-04-18T03:06:42.963Z,4.49
2023-04-18T03:09:09.277Z,4.48
2023-04-18T03:11:35.573Z,4.49
2023-04-18T03:14:02.022Z,4.50
2023-04-18T03:16:28.571Z,4.50
2023-04-18T03:18:55.060Z,4.48
2023-04-18T03:21:21.387Z,4.50
2023-04-18T03:23:47.687Z,4.50
2023-04-18T03:26:14.280Z,4.49
2023-04-18T03:28:40.643Z,4.52
2023-04-18T03:31:07.245Z,4.57
2023-04-18T03:33:33.556Z,4.50
2023-04-18T03:35:59.848Z,4.49
2023-04-18T03:38:26.198Z,4.46
2023-04-18T03:40:52.524Z,4.43
2023-04-18T03:43:19.564Z,4.38
2023-04-18T03:45:45.999Z,4.40
2023-04-18T03:48:13.058Z,4.38
2023-04-18T03:50:39.496Z,4.38
2023-04-18T03:53:05.845Z,4.30
2023-04-18T03:55:32.665Z,4.26
2023-04-18T03:57:58.985Z,4.27
2023-04-18T04:00:26.040Z,4.15
2023-04-18T04:02:52.558Z,4.13
2023-04-18T04:05:19.121Z,4.05
2023-04-18T04:07:45.510Z,4.04
2023-04-18T04:10:11.802Z,4.04
2023-04-18T04:12:38.177Z,3.98
2023-04-18T04:15:05.034Z,4.00
2023-04-18T04:17:31.370Z,3.96
2023-04-18T04:19:57.675Z,4.11
2023-04-18T04:22:24.040Z,3.97
2023-04-18T04:24:50.391Z,3.91
2023-04-18T04:27:16.787Z,3.88
2023-04-18T04:29:43.111Z,3.86
2023-04-18T04:32:09.591Z,3.91
2023-04-18T04:34:35.977Z,3.87
2023-04-18T04:37:03.216Z,3.82
2023-04-18T04:39:29.631Z,3.84
2023-04-18T04:41:56.450Z,3.82
2023-04-18T04:44:22.787Z,3.83
2023-04-18T04:46:49.126Z,3.84
2023-04-18T04:49:15.500Z,3.84
2023-04-18T04:51:41.804Z,3.89
2023-04-18T04:54:08.123Z,3.89
2023-04-18T04:56:34.482Z,3.93
2023-04-18T04:59:00.809Z,4.03
2023-04-18T05:01:28.835Z,4.04
2023-04-18T05:03:55.284Z,4.08
2023-04-18T05:06:21.809Z,4.08
2023-04-18T05:08:48.865Z,4.07
2023-04-18T05:11:15.585Z,4.09
2023-04-18T05:13:42.306Z,4.09
2023-04-18T05:16:08.811Z,4.10
2023-04-18T05:18:35.253Z,4.10
2023-04-18T05:21:01.624Z,4.08
2023-04-18T05:23:27.958Z,4.09
2023-04-18T05:25:54.379Z,4.11
2023-04-18T05:28:25.173Z,4.11
2023-04-18T05:30:51.555Z,4.17
2023-04-18T05:33:18.123Z,4.25
2023-04-18T05:35:44.512Z,4.33
2023-04-18T05:38:10.858Z,4.38
2023-04-18T05:40:37.189Z,4.39
2023-04-18T05:43:03.496Z,4.48
2023-04-18T05:45:29.826Z,4.57
2023-04-18T05:47:56.184Z,4.65
2023-04-18T05:50:22.517Z,4.60
2023-04-18T05:52:48.843Z,4.67
2023-04-18T05:55:15.180Z,4.78
2023-04-18T05:57:41.527Z,4.81
2023-04-18T06:00:08.374Z,4.84
2023-04-18T06:02:34.814Z,4.94
2023-04-18T06:05:01.594Z,4.98
2023-04-18T06:07:28.149Z,5.02
2023-04-18T06:09:54.488Z,5.06
2023-04-18T06:12:23.169Z,5.14
2023-04-18T06:14:50.015Z,5.23
2023-04-18T06:17:16.427Z,5.34
2023-04-18T06:19:42.757Z,5.37
2023-04-18T06:22:09.066Z,5.42
2023-04-18T06:24:35.453Z,5.44
2023-04-18T06:27:01.857Z,5.55
2023-04-18T06:29:28.266Z,5.51
2023-04-18T06:31:54.589Z,5.52
2023-04-18T06:34:20.925Z,5.61
2023-04-18T06:36:47.301Z,5.66
2023-04-18T06:39:13.600Z,5.75
2023-04-18T06:41:39.894Z,5.77
2023-04-18T06:44:06.216Z,5.83
2023-04-18T06:46:32.959Z,5.81
2023-04-18T06:48:59.500Z,5.89
2023-04-18T06:51:25.920Z,5.96
2023-04-18T06:53:52.290Z,6.05
2023-04-18T06:56:22.352Z,6.11
2023-04-18T06:58:49.383Z,6.24
2023-04-18T07:01:15.726Z,6.33
2023-04-18T07:03:42.136Z,6.42
2023-04-18T07:06:08.673Z,6.49
2023-04-18T07:08:35.569Z,6.63
2023-04-18T07:11:02.038Z,6.68
2023-04-18T07:13:28.390Z,6.70
2023-04-18T07:15:54.891Z,6.69
2023-04-18T07:18:34.078Z,6.71
2023-04-18T07:21:03.468Z,6.62
2023-04-18T07:23:30.147Z,6.65
2023-04-18T07:25:56.637Z,6.74
2023-04-18T07:28:22.952Z,6.83
2023-04-18T07:30:49.309Z,6.91
2023-04-18T07:33:15.686Z,6.96
2023-04-18T07:35:43.272Z,6.97
2023-04-18T07:38:09.604Z,6.93
2023-04-18T07:40:35.959Z,7.02
2023-04-18T07:43:02.263Z,7.06
2023-04-18T07:45:28.769Z,7.11
2023-04-18T07:47:55.134Z,7.08
2023-04-18T07:50:21.581Z,7.13
2023-04-18T07:52:47.906Z,7.17
2023-04-18T07:55:14.528Z,7.19
2023-04-18T07:57:42.900Z,7.15
2023-04-18T08:00:10.084Z,7.14
2023-04-18T08:02:36.574Z,7.13
2023-04-18T08:05:03.405Z,7.17
2023-04-18T08:07:29.903Z,7.14
2023-04-18T08:09:56.211Z,7.14
2023-04-18T08:12:22.559Z,7.21
2023-04-18T08:14:48.849Z,7.19
2023-04-18T08:17:15.266Z,7.25
2023-04-18T08:19:41.556Z,7.25
2023-04-18T08:22:09.444Z,7.33
2023-04-18T08:24:37.473Z,7.33
2023-04-18T08:27:03.992Z,7.34
2023-04-18T08:29:30.273Z,7.40
2023-04-18T08:31:56.654Z,7.37
2023-04-18T08:34:22.996Z,7.40
2023-04-18T08:36:50.795Z,7.44
2023-04-18T08:39:17.351Z,7.49
2023-04-18T08:41:49.835Z,7.64
2023-04-18T08:44:16.682Z,7.76
2023-04-18T08:46:43.020Z,7.81
2023-04-18T08:49:10.753Z,7.84
2023-04-18T08:51:40.220Z,8.02
2023-04-18T08:54:06.629Z,8.15
2023-04-18T08:56:33.025Z,8.36
2023-04-18T08:58:59.434Z,8.60
2023-04-18T09:01:45.602Z,8.69
2023-04-18T09:04:11.991Z,8.66
2023-04-18T09:06:51.600Z,8.71
2023-04-18T09:09:17.924Z,8.94
2023-04-18T09:11:44.270Z,8.93
2023-04-18T09:14:23.964Z,9.10
2023-04-18T09:16:50.328Z,9.09
2023-04-18T09:19:16.888Z,9.11
2023-04-18T09:21:44.175Z,9.17
2023-04-18T09:24:24.399Z,9.30
2023-04-18T09:26:51.255Z,9.36
2023-04-18T09:29:20.450Z,9.39
2023-04-18T09:32:00.261Z,9.37
2023-04-18T09:34:28.341Z,9.33
2023-04-18T09:37:09.144Z,9.41
2023-04-18T09:39:37.447Z,9.45
2023-04-18T09:42:03.869Z,9.48
2023-04-18T09:44:30.169Z,9.53
2023-04-18T09:46:56.621Z,9.63
2023-04-18T09:49:23.679Z,9.76
2023-04-18T09:51:53.178Z,9.87
2023-04-18T09:54:20.057Z,10.03
2023-04-18T09:56:48.021Z,10.11
2023-04-18T09:59:21.442Z,9.99
2023-04-18T10:01:49.430Z,10.02
2023-04-18T10:04:17.553Z,10.30
2023-04-18T10:06:45.661Z,10.42
2023-04-18T10:09:13.665Z,10.47
2023-04-18T10:11:40.422Z,10.41
2023-04-18T10:14:11.294Z,10.34
2023-04-18T10:16:38.397Z,10.38
2023-04-18T10:19:21.261Z,10.41
2023-04-18T10:22:00.969Z,10.63
2023-04-18T10:24:45.529Z,10.67
2023-04-18T10:27:11.871Z,10.70
2023-04-18T10:29:52.168Z,10.70
2023-04-18T10:32:19.793Z,10.66
2023-04-18T10:34:46.677Z,10.64
2023-04-18T10:37:13.425Z,10.85
2023-04-18T10:39:55.630Z,10.99
2023-04-18T10:42:47.625Z,10.97
2023-04-18T10:45:23.716Z,11.05
2023-04-18T10:47:50.767Z,11.27
2023-04-18T10:50:17.490Z,11.16
2023-04-18T10:52:45.580Z,11.38
2023-04-18T10:55:25.963Z,11.34
2023-04-18T10:57:52.321Z,11.59
2023-04-18T11:00:19.189Z,11.70
2023-04-18T11:02:53.907Z,11.63
2023-04-18T11:05:23.046Z,11.69
2023-04-18T11:07:49.550Z,11.59
2023-04-18T11:10:18.861Z,11.69
2023-04-18T11:12:45.547Z,11.70
2023-04-18T11:15:25.340Z,11.57
2023-04-18T11:18:00.555Z,11.58
2023-04-18T11:20:27.272Z,11.65
2023-04-18T11:23:01.242Z,11.80
2023-04-18T11:25:31.066Z,11.95
2023-04-18T11:28:02.600Z,11.83
2023-04-18T11:30:36.289Z,11.78
2023-04-18T11:33:10.985Z,11.92
2023-04-18T11:35:42.502Z,11.87
2023-04-18T11:40:50.783Z,11.79
2023-04-18T11:43:25.658Z,11.80
2023-04-18T11:45:54.175Z,12.01
2023-04-18T11:48:20.590Z,12.03
2023-04-18T11:50:46.935Z,12.06
2023-04-18T11:53:13.235Z,12.03
2023-04-18T11:55:39.538Z,12.16
2023-04-18T11:58:05.890Z,12.13
2023-04-18T12:00:34.909Z,12.21
2023-04-18T12:03:03.014Z,12.34
2023-04-18T12:05:31.014Z,12.37
2023-04-18T12:10:37.839Z,12.22
2023-04-18T12:13:08.566Z,12.20
2023-04-18T12:15:38.796Z,12.29
2023-04-18T12:18:05.974Z,12.49
2023-04-18T12:20:40.174Z,12.46
2023-04-18T12:23:06.708Z,12.53
2023-04-18T12:25:33.196Z,12.59
2023-04-18T12:28:04.198Z,12.69
2023-04-18T12:30:37.427Z,12.65
2023-04-18T12:33:04.455Z,12.70
2023-04-18T12:35:32.351Z,12.65
2023-04-18T12:38:00.709Z,12.83
2023-04-18T12:40:29.855Z,13.01
2023-04-18T12:42:56.375Z,12.95
2023-04-18T12:45:23.805Z,12.81
2023-04-18T12:47:51.919Z,12.73
2023-04-18T12:50:23.965Z,12.68
2023-04-18T12:52:52.422Z,12.71
2023-04-18T12:55:19.180Z,12.96
2023-04-18T12:57:45.535Z,13.04
2023-04-18T13:00:12.726Z,13.10
2023-04-18T13:02:44.481Z,13.12
2023-04-18T13:05:13.923Z,13.22
2023-04-18T13:07:41.221Z,13.14
2023-04-18T13:10:09.425Z,13.10
2023-04-18T13:12:35.868Z,13.24
2023-04-18T13:15:02.257Z,13.19
2023-04-18T13:17:28.599Z,13.23
2023-04-18T13:19:54.973Z,13.30
2023-04-18T13:22:21.430Z,13.23
2023-04-18T13:24:48.118Z,13.06
2023-04-18T13:27:15.374Z,13.01
2023-04-18T13:29:43.018Z,13.00
2023-04-18T13:32:09.755Z,13.17
2023-04-18T13:34:45.005Z,13.26
2023-04-18T13:37:11.913Z,13.33
2023-04-18T13:39:38.729Z,13.28
2023-04-18T13:42:05.111Z,13.42
2023-04-18T13:44:31.507Z,13.50
2023-04-18T13:46:57.889Z,13.60
2023-04-18T13:49:24.252Z,13.63
2023-04-18T13:51:51.539Z,13.65
2023-04-18T13:54:17.841Z,13.64
2023-04-18T13:56:44.164Z,13.53
2023-04-18T13:59:10.511Z,13.44
2023-04-18T14:01:36.944Z,13.40
2023-04-18T14:04:03.763Z,13.36
2023-04-18T14:06:30.088Z,13.38
2023-04-18T14:08:56.365Z,13.33
2023-04-18T14:11:22.916Z,13.32
2023-04-18T14:13:49.230Z,13.25
2023-04-18T14:16:15.687Z,13.24
2023-04-18T14:18:45.863Z,13.23
2023-04-18T14:21:12.193Z,13.21
2023-04-18T14:23:38.503Z,13.19
2023-04-18T14:26:05.238Z,13.16
2023-04-18T14:28:31.517Z,13.19
2023-04-18T14:30:58.000Z,13.21
2023-04-18T14:33:24.418Z,13.15
2023-04-18T14:35:50.723Z,13.18
2023-04-18T14:38:17.126Z,13.17
2023-04-18T14:40:46.693Z,13.15
2023-04-18T14:43:12.996Z,13.11
2023-04-18T14:45:39.296Z,13.13
2023-04-18T14:48:07.858Z,13.09
2023-04-18T14:50:35.131Z,13.09
2023-04-18T14:53:02.310Z,13.13
2023-04-18T14:55:28.641Z,13.16
2023-04-18T14:57:54.968Z,13.22
2023-04-18T15:00:21.361Z,13.17
2023-04-18T15:02:47.881Z,13.19
2023-04-18T15:07:43.714Z,13.16
2023-04-18T15:10:10.467Z,13.22
2023-04-18T15:12:36.812Z,13.17
2023-04-18T15:15:06.718Z,13.19
2023-04-18T15:17:33.148Z,13.26
2023-04-18T15:19:59.865Z,13.22
2023-04-18T15:22:26.189Z,13.15
2023-04-18T15:24:52.503Z,13.10
2023-04-18T15:27:18.803Z,13.05
2023-04-18T15:29:45.104Z,13.06
2023-04-18T15:34:49.118Z,13.06
2023-04-18T15:37:15.454Z,13.02
2023-04-18T15:42:20.332Z,13.05
2023-04-18T15:44:46.625Z,13.06
2023-04-18T15:47:13.532Z,13.08
2023-04-18T15:49:39.853Z,13.08
2023-04-18T15:52:06.199Z,13.04
2023-04-18T15:54:32.804Z,13.02
2023-04-18T15:56:59.218Z,13.01
2023-04-18T15:59:25.546Z,12.99
2023-04-18T16:01:51.831Z,13.03
2023-04-18T16:04:18.374Z,12.97
2023-04-18T16:06:44.793Z,12.88
2023-04-18T16:09:14.195Z,12.79
2023-04-18T16:11:40.504Z,12.75
2023-04-18T16:14:06.844Z,12.72
2023-04-18T16:16:33.240Z,12.70
2023-04-18T16:19:00.235Z,12.62
2023-04-18T16:21:26.698Z,12.60
2023-04-18T16:23:53.002Z,12.62
2023-04-18T16:26:19.426Z,12.58
2023-04-18T16:28:45.737Z,12.52
2023-04-18T16:31:14.355Z,12.46
2023-04-18T16:33:40.720Z,12.42
2023-04-18T16:36:07.181Z,12.41
2023-04-18T16:38:33.488Z,12.38
2023-04-18T16:40:59.813Z,12.38
2023-04-18T16:43:26.248Z,12.34
2023-04-18T16:45:53.528Z,12.31
2023-04-18T16:48:19.877Z,12.21
2023-04-18T16:50:46.170Z,12.16
2023-04-18T16:53:12.542Z,12.19
2023-04-18T16:55:38.835Z,12.13
2023-04-18T16:58:05.151Z,12.09
2023-04-18T17:00:31.459Z,12.03
2023-04-18T17:02:57.819Z,12.00
2023-04-18T17:05:27.470Z,11.98
2023-04-18T17:07:53.814Z,11.97
2023-04-18T17:10:20.492Z,11.92
2023-04-18T17:12:47.539Z,11.85
2023-04-18T17:15:13.804Z,11.78
2023-04-18T17:17:40.140Z,11.74
2023-04-18T17:20:07.230Z,11.67
2023-04-18T17:22:33.537Z,11.59
2023-04-18T17:24:59.883Z,11.60
2023-04-18T17:27:26.231Z,11.57
2023-04-18T17:29:52.514Z,11.53
2023-04-18T17:32:18.898Z,11.57
2023-04-18T17:34:45.350Z,11.59
2023-04-18T17:39:49.356Z,11.42
2023-04-18T17:42:15.651Z,11.34
2023-04-18T17:47:22.135Z,11.19
2023-04-18T17:49:48.500Z,11.16
2023-04-18T17:52:14.879Z,11.13
2023-04-18T17:54:41.194Z,11.02
2023-04-18T17:57:07.497Z,10.98
2023-04-18T17:59:33.840Z,10.93
2023-04-18T18:02:00.203Z,10.89
2023-04-18T18:04:26.990Z,10.80
2023-04-18T18:06:57.547Z,10.79
2023-04-18T18:09:24.073Z,10.79
2023-04-18T18:11:50.374Z,10.71
2023-04-18T18:14:16.754Z,10.63
2023-04-18T18:16:43.718Z,10.54
2023-04-18T18:19:10.058Z,10.48
2023-04-18T18:21:36.491Z,10.44
2023-04-18T18:24:02.985Z,10.34
2023-04-18T18:26:29.526Z,10.28
2023-04-18T18:28:56.000Z,10.26
2023-04-18T18:31:22.363Z,10.25
2023-04-18T18:33:48.878Z,10.20
2023-04-18T18:36:15.195Z,10.18
2023-04-18T18:38:41.504Z,10.11
2023-04-18T18:41:07.869Z,10.03
2023-04-18T18:43:34.478Z,9.97
2023-04-18T18:46:00.843Z,9.89
2023-04-18T18:48:27.938Z,9.90
2023-04-18T18:50:54.296Z,9.79
2023-04-18T18:53:20.724Z,9.64
2023-04-18T18:55:47.066Z,9.64
2023-04-18T18:58:13.388Z,9.53
2023-04-18T19:00:39.694Z,9.47
2023-04-18T19:03:06.107Z,9.37
2023-04-18T19:05:32.502Z,9.31
2023-04-18T19:07:58.870Z,9.24
2023-04-18T19:10:28.024Z,9.22
2023-04-18T19:12:54.330Z,9.04
2023-04-18T19:15:20.717Z,8.96
2023-04-18T19:17:47.072Z,8.91
2023-04-18T19:20:14.603Z,8.87
2023-04-18T19:22:40.889Z,8.84
2023-04-18T19:25:08.273Z,8.72
2023-04-18T19:27:34.629Z,8.68
2023-04-18T19:30:01.004Z,8.60
2023-04-18T19:32:27.340Z,8.54
2023-04-18T19:34:53.698Z,8.50
2023-04-18T19:37:19.996Z,8.48
2023-04-18T19:39:46.332Z,8.31
2023-04-18T19:42:12.647Z,8.33
2023-04-18T19:44:38.950Z,8.20
2023-04-18T19:47:05.276Z,8.12
2023-04-18T19:49:31.563Z,8.06
2023-04-18T19:51:57.886Z,8.11
2023-04-18T19:54:24.207Z,8.07
2023-04-18T19:56:50.728Z,7.95
2023-04-18T19:59:17.171Z,7.93
2023-04-18T20:01:46.559Z,7.86
2023-04-18T20:04:13.043Z,7.79
2023-04-18T20:06:39.472Z,7.72
2023-04-18T20:09:05.950Z,7.64
2023-04-18T20:11:32.486Z,7.61
2023-04-18T20:13:58.788Z,7.57
2023-04-18T20:16:25.208Z,7.51
2023-04-18T20:18:52.995Z,7.46
2023-04-18T20:21:21.066Z,7.40
2023-04-18T20:23:47.377Z,7.33
2023-04-18T20:26:13.711Z,7.29
2023-04-18T20:28:40.064Z,7.25
2023-04-18T20:31:06.402Z,7.20
2023-04-18T20:33:32.743Z,7.07
2023-04-18T20:35:59.039Z,7.04
2023-04-18T20:38:26.355Z,6.99
2023-04-18T20:40:52.744Z,6.88
2023-04-18T20:43:19.291Z,6.88
2023-04-18T20:45:47.683Z,6.86
2023-04-18T20:48:14.027Z,6.80
2023-04-18T20:50:40.312Z,6.73
2023-04-18T20:53:06.618Z,6.68
2023-04-18T20:55:32.924Z,6.66
2023-04-18T20:57:59.280Z,6.61
2023-04-18T21:00:25.657Z,6.59
2023-04-18T21:02:52.157Z,6.52
2023-04-18T21:05:18.606Z,6.49
2023-04-18T21:07:45.829Z,6.48
2023-04-18T21:10:12.283Z,6.39
2023-04-18T21:12:38.615Z,6.34
2023-04-18T21:15:05.522Z,6.32
2023-04-18T21:17:31.887Z,6.25
2023-04-18T21:19:58.195Z,6.23
2023-04-18T21:22:24.481Z,6.19
2023-04-18T21:24:50.761Z,6.13
2023-04-18T21:27:17.096Z,6.08
2023-04-18T21:29:43.470Z,6.06
2023-04-18T21:32:09.753Z,6.04
2023-04-18T21:34:36.045Z,5.98
2023-04-18T21:37:02.442Z,5.98
2023-04-18T21:39:28.792Z,5.91
2023-04-18T21:41:55.132Z,5.92
2023-04-18T21:44:21.474Z,5.85
2023-04-18T21:46:47.751Z,5.79
2023-04-18T21:49:14.142Z,5.72
2023-04-18T21:51:40.437Z,5.72
2023-04-18T21:54:06.802Z,5.69
2023-04-18T21:56:33.128Z,5.65
2023-04-18T21:58:59.433Z,5.63
2023-04-18T22:01:25.776Z,5.60
2023-04-18T22:03:52.228Z,5.54
2023-04-18T22:06:18.720Z,5.49
2023-04-18T22:08:45.034Z,5.49
2023-04-18T22:11:11.302Z,5.41
2023-04-18T22:13:37.623Z,5.40
2023-04-18T22:16:04.247Z,5.36
2023-04-18T22:18:32.961Z,5.28
2023-04-18T22:21:00.359Z,5.31
2023-04-18T22:23:27.499Z,5.27
2023-04-18T22:25:53.783Z,5.25
2023-04-18T22:28:20.596Z,5.25
2023-04-18T22:30:50.993Z,5.20
2023-04-18T22:33:24.996Z,5.20
2023-04-18T22:35:51.377Z,5.16
2023-04-18T22:38:17.725Z,5.12
2023-04-18T22:40:44.027Z,5.08
2023-04-18T22:43:10.398Z,5.04
2023-04-18T22:45:36.702Z,5.11
2023-04-18T22:48:03.227Z,5.07
2023-04-18T22:50:29.593Z,5.01
2023-04-18T22:52:55.984Z,5.03
2023-04-18T22:55:22.304Z,4.99
2023-04-18T22:57:48.623Z,5.03
2023-04-18T23:00:15.236Z,5.08
2023-04-18T23:02:41.725Z,5.05
2023-04-18T23:05:08.635Z,5.05
2023-04-18T23:07:34.925Z,5.09
2023-04-18T23:10:01.277Z,5.09
2023-04-18T23:12:27.586Z,5.15
2023-04-18T23:14:53.910Z,5.23
2023-04-18T23:17:20.733Z,5.18
2023-04-18T23:19:49.679Z,5.18
2023-04-18T23:22:16.236Z,5.19
2023-04-18T23:24:42.560Z,5.18
2023-04-18T23:27:08.871Z,5.24
2023-04-18T23:29:38.695Z,5.22
2023-04-18T23:32:05.721Z,5.25
2023-04-18T23:34:32.237Z,5.27
2023-04-18T23:36:58.812Z,5.28
2023-04-18T23:39:27.845Z,5.30
2023-04-18T23:41:54.198Z,5.33
2023-04-18T23:44:20.503Z,5.34
2023-04-18T23:46:49.646Z,5.35
2023-04-18T23:49:16.337Z,5.33
2023-04-18T23:51:42.693Z,5.32
2023-04-18T23:54:09.086Z,5.35
2023-04-18T23:56:35.483Z,5.38
2023-04-18T23:59:01.801Z,5.36
